createdAt,value
2018-02-25T00:00:12.029Z,-4.09
2018-02-25T00:01:21.750Z,-4.09
2018-02-25T00:02:31.963Z,-4.11
2018-02-25T00:03:42.368Z,-4.09
2018-02-25T00:04:52.503Z,-4.16
2018-02-25T00:06:02.479Z,-4.09
2018-02-25T00:07:12.320Z,-4.11
2018-02-25T00:08:22.487Z,-4.13
2018-02-25T00:09:32.902Z,-4.1
2018-02-25T00:10:43.028Z,-4.14
2018-02-25T00:11:53.198Z,-4.17
2018-02-25T00:13:03.259Z,-4.13
2018-02-25T00:14:13.641Z,-4.17
2018-02-25T00:15:23.837Z,-4.17
2018-02-25T00:16:34.217Z,-4.14
2018-02-25T00:17:44.356Z,-4.19
2018-02-25T00:18:54.549Z,-4.31
2018-02-25T00:20:04.701Z,-4.28
2018-02-25T00:21:14.576Z,-4.21
2018-02-25T00:22:24.796Z,-4.27
2018-02-25T00:23:35.147Z,-4.24
2018-02-25T00:24:45.509Z,-4.31
2018-02-25T00:25:55.729Z,-4.28
2018-02-25T00:27:05.936Z,-4.27
2018-02-25T00:28:16.209Z,-4.29
2018-02-25T00:29:26.492Z,-4.25
2018-02-25T00:30:36.815Z,-4.19
2018-02-25T00:31:46.696Z,-4.13
2018-02-25T00:32:56.880Z,-4.19
2018-02-25T00:34:06.874Z,-4.11
2018-02-25T00:35:16.662Z,-4.25
2018-02-25T00:36:27.093Z,-4.22
2018-02-25T00:37:37.039Z,-4.27
2018-02-25T00:38:46.928Z,-4.25
2018-02-25T00:39:57.257Z,-4.25
2018-02-25T00:41:07.385Z,-4.34
2018-02-25T00:42:17.520Z,-4.28
2018-02-25T00:43:27.387Z,-4.31
2018-02-25T00:44:37.489Z,-4.34
2018-02-25T00:45:47.343Z,-4.28
2018-02-25T00:46:57.696Z,-4.32
2018-02-25T00:48:08.041Z,-4.42
2018-02-25T00:49:18.247Z,-4.39
2018-02-25T00:50:28.498Z,-4.42
2018-02-25T00:51:38.694Z,-4.37
2018-02-25T00:52:48.838Z,-4.52
2018-02-25T00:53:58.458Z,-4.32
2018-02-25T00:55:08.350Z,-4.42
2018-02-25T00:56:18.684Z,-4.45
2018-02-25T00:57:28.789Z,-4.32
2018-02-25T00:58:39.067Z,-4.45
2018-02-25T00:59:49.261Z,-4.39
2018-02-25T01:00:59.389Z,-4.46
2018-02-25T01:02:09.308Z,-4.53
2018-02-25T01:03:19.605Z,-4.37
2018-02-25T01:04:29.725Z,-4.37
2018-02-25T01:05:39.918Z,-4.53
2018-02-25T01:06:50.148Z,-4.55
2018-02-25T01:08:00.073Z,-4.55
2018-02-25T01:09:10.222Z,-4.53
2018-02-25T01:10:20.376Z,-4.55
2018-02-25T01:11:30.279Z,-4.55
2018-02-25T01:12:39.973Z,-4.52
2018-02-25T01:13:50.102Z,-4.6
2018-02-25T01:15:00.315Z,-4.6
2018-02-25T01:16:10.414Z,-4.66
2018-02-25T01:17:20.287Z,-4.66
2018-02-25T01:18:30.447Z,-4.7
2018-02-25T01:19:40.613Z,-4.79
2018-02-25T01:20:50.466Z,-4.73
2018-02-25T01:22:00.624Z,-4.68
2018-02-25T01:23:11.016Z,-4.88
2018-02-25T01:24:21.164Z,-4.88
2018-02-25T01:25:31.300Z,-5.07
2018-02-25T01:26:41.473Z,-5.09
2018-02-25T01:27:51.373Z,-5.2
2018-02-25T01:29:01.558Z,-5.1
2018-02-25T01:30:11.448Z,-5.21
2018-02-25T01:31:21.317Z,-5.12
2018-02-25T01:32:31.749Z,-5.12
2018-02-25T01:33:41.614Z,-5.15
2018-02-25T01:34:51.759Z,-5.27
2018-02-25T01:36:01.933Z,-5.22
2018-02-25T01:37:12.040Z,-5.27
2018-02-25T01:38:21.369Z,-5.28
2018-02-25T01:39:31.588Z,-5.35
2018-02-25T01:40:41.761Z,-5.3
2018-02-25T01:41:51.999Z,-5.33
2018-02-25T01:43:02.360Z,-5.22
2018-02-25T01:44:12.710Z,-5.28
2018-02-25T01:45:22.836Z,-5.22
2018-02-25T01:46:32.379Z,-5.28
2018-02-25T01:47:42.585Z,-5.3
2018-02-25T01:48:52.795Z,-5.32
2018-02-25T01:50:02.859Z,-5.27
2018-02-25T01:51:13.026Z,-5.22
2018-02-25T01:52:23.579Z,-5.28
2018-02-25T01:53:33.474Z,-5.36
2018-02-25T01:54:43.082Z,-5.35
2018-02-25T01:55:53.051Z,-5.36
2018-02-25T01:57:03.185Z,-5.38
2018-02-25T01:58:13.366Z,-5.43
2018-02-25T01:59:24.115Z,-5.42
2018-02-25T02:00:34.276Z,-5.42
2018-02-25T02:01:44.402Z,-5.43
2018-02-25T02:02:54.254Z,-5.48
2018-02-25T02:04:04.681Z,-5.46
2018-02-25T02:05:14.570Z,-5.43
2018-02-25T02:06:24.737Z,-5.52
2018-02-25T02:07:34.626Z,-5.41
2018-02-25T02:08:44.780Z,-5.5
2018-02-25T02:09:54.693Z,-5.58
2018-02-25T02:11:04.589Z,-5.45
2018-02-25T02:12:14.940Z,-5.57
2018-02-25T02:13:24.991Z,-5.41
2018-02-25T02:14:35.149Z,-5.48
2018-02-25T02:15:45.265Z,-5.39
2018-02-25T02:16:55.171Z,-5.41
2018-02-25T02:18:05.235Z,-5.32
2018-02-25T02:19:15.586Z,-5.27
2018-02-25T02:20:25.702Z,-5.35
2018-02-25T02:21:35.852Z,-5.28
2018-02-25T02:22:45.856Z,-5.27
2018-02-25T02:23:56.010Z,-5.25
2018-02-25T02:25:06.182Z,-5.27
2018-02-25T02:26:16.409Z,-5.28
2018-02-25T02:27:26.521Z,-5.28
2018-02-25T02:28:36.738Z,-5.25
2018-02-25T02:29:46.841Z,-5.22
2018-02-25T02:30:57.201Z,-5.24
2018-02-25T02:32:06.820Z,-5.24
2018-02-25T02:33:16.888Z,-5.27
2018-02-25T02:34:26.760Z,-5.28
2018-02-25T02:35:36.867Z,-5.3
2018-02-25T02:36:46.471Z,-5.28
2018-02-25T02:37:56.995Z,-5.33
2018-02-25T02:39:06.929Z,-5.28
2018-02-25T02:40:17.228Z,-5.36
2018-02-25T02:41:27.392Z,-5.2
2018-02-25T02:42:37.660Z,-5.21
2018-02-25T02:43:47.916Z,-5.18
2018-02-25T02:44:58.036Z,-5.2
2018-02-25T02:46:08.251Z,-5.24
2018-02-25T02:47:18.687Z,-5.27
2018-02-25T02:48:28.829Z,-5.33
2018-02-25T02:49:38.964Z,-5.38
2018-02-25T02:50:48.738Z,-5.3
2018-02-25T02:51:58.901Z,-5.33
2018-02-25T02:53:09.053Z,-5.32
2018-02-25T02:54:19.265Z,-5.28
2018-02-25T02:55:29.511Z,-5.32
2018-02-25T02:56:39.676Z,-5.41
2018-02-25T02:57:49.801Z,-5.36
2018-02-25T02:58:59.426Z,-5.35
2018-02-25T03:00:09.581Z,-5.27
2018-02-25T03:01:19.725Z,-5.22
2018-02-25T03:02:29.326Z,-5.33
2018-02-25T03:03:38.865Z,-5.33
2018-02-25T03:04:49.015Z,-5.35
2018-02-25T03:05:59.130Z,-5.41
2018-02-25T03:07:09.268Z,-5.46
2018-02-25T03:08:19.109Z,-5.57
2018-02-25T03:09:29.282Z,-5.43
2018-02-25T03:10:39.482Z,-5.45
2018-02-25T03:11:49.640Z,-5.45
2018-02-25T03:12:59.193Z,-5.43
2018-02-25T03:14:08.808Z,-5.43
2018-02-25T03:15:18.659Z,-5.48
2018-02-25T03:16:28.789Z,-5.41
2018-02-25T03:17:39.042Z,-5.55
2018-02-25T03:18:49.184Z,-5.32
2018-02-25T03:19:59.386Z,-5.32
2018-02-25T03:21:09.241Z,-5.28
2018-02-25T03:22:19.196Z,-5.39
2018-02-25T03:23:29.337Z,-5.35
2018-02-25T03:24:39.219Z,-5.35
2018-02-25T03:25:49.463Z,-5.28
2018-02-25T03:26:59.325Z,-5.41
2018-02-25T03:28:09.204Z,-5.43
2018-02-25T03:29:19.368Z,-5.5
2018-02-25T03:30:29.496Z,-5.62
2018-02-25T03:31:39.628Z,-5.62
2018-02-25T03:32:49.477Z,-5.65
2018-02-25T03:33:59.672Z,-5.7
2018-02-25T03:35:09.541Z,-5.79
2018-02-25T03:36:19.514Z,-5.82
2018-02-25T03:37:29.683Z,-5.72
2018-02-25T03:38:39.444Z,-5.76
2018-02-25T03:39:49.055Z,-5.78
2018-02-25T03:40:59.151Z,-5.78
2018-02-25T03:42:09.501Z,-5.8
2018-02-25T03:43:19.623Z,-5.89
2018-02-25T03:44:29.734Z,-5.86
2018-02-25T03:45:39.894Z,-5.94
2018-02-25T03:46:49.922Z,-5.8
2018-02-25T03:48:00.041Z,-5.85
2018-02-25T03:49:10.230Z,-5.75
2018-02-25T03:50:20.348Z,-5.75
2018-02-25T03:51:30.658Z,-5.72
2018-02-25T03:52:40.800Z,-5.65
2018-02-25T03:53:50.745Z,-5.7
2018-02-25T03:55:00.360Z,-5.68
2018-02-25T03:56:10.482Z,-5.54
2018-02-25T03:57:20.412Z,-5.54
2018-02-25T03:58:30.550Z,-5.6
2018-02-25T03:59:40.665Z,-5.57
2018-02-25T04:00:50.838Z,-5.65
2018-02-25T04:02:00.984Z,-5.6
2018-02-25T04:03:10.854Z,-5.61
2018-02-25T04:04:20.720Z,-5.61
2018-02-25T04:05:30.880Z,-5.61
2018-02-25T04:06:40.991Z,-5.54
2018-02-25T04:07:50.879Z,-5.62
2018-02-25T04:09:01.016Z,-5.64
2018-02-25T04:10:11.154Z,-5.55
2018-02-25T04:11:20.387Z,-5.61
2018-02-25T04:12:30.052Z,-5.61
2018-02-25T04:13:40.050Z,-5.6
2018-02-25T04:14:50.193Z,-5.57
2018-02-25T04:15:59.818Z,-5.61
2018-02-25T04:17:09.707Z,-5.57
2018-02-25T04:18:19.708Z,-5.62
2018-02-25T04:19:29.834Z,-5.67
2018-02-25T04:20:39.616Z,-5.8
2018-02-25T04:21:50.038Z,-5.86
2018-02-25T04:22:59.795Z,-5.94
2018-02-25T04:24:09.541Z,-5.93
2018-02-25T04:25:19.884Z,-5.94
2018-02-25T04:26:30.224Z,-5.94
2018-02-25T04:27:40.024Z,-6
2018-02-25T04:28:50.250Z,-6
2018-02-25T04:30:00.435Z,-5.96
2018-02-25T04:31:10.384Z,-6.06
2018-02-25T04:32:20.488Z,-5.97
2018-02-25T04:33:30.681Z,-6
2018-02-25T04:34:40.622Z,-6.09
2018-02-25T04:35:50.778Z,-6.09
2018-02-25T04:37:00.838Z,-6.14
2018-02-25T04:38:10.723Z,-6.14
2018-02-25T04:39:20.849Z,-6.08
2018-02-25T04:40:30.992Z,-6.09
2018-02-25T04:41:40.907Z,-6.04
2018-02-25T04:42:51.286Z,-6.06
2018-02-25T04:44:01.937Z,-6.01
2018-02-25T04:45:11.809Z,-6.09
2018-02-25T04:46:21.921Z,-5.98
2018-02-25T04:47:32.055Z,-6.08
2018-02-25T04:48:41.620Z,-6.14
2018-02-25T04:49:51.949Z,-6.03
2018-02-25T04:51:02.064Z,-6.08
2018-02-25T04:52:11.916Z,-6.21
2018-02-25T04:53:22.060Z,-6.01
2018-02-25T04:54:32.003Z,-6.01
2018-02-25T04:55:42.576Z,-6.09
2018-02-25T04:56:52.424Z,-5.98
2018-02-25T04:58:02.478Z,-6.12
2018-02-25T04:59:12.639Z,-6.06
2018-02-25T05:00:22.514Z,-6.18
2018-02-25T05:01:32.665Z,-6.03
2018-02-25T05:02:43.002Z,-6.14
2018-02-25T05:03:53.105Z,-6.12
2018-02-25T05:05:03.300Z,-6.12
2018-02-25T05:06:13.166Z,-6.01
2018-02-25T05:07:23.199Z,-6.04
2018-02-25T05:08:32.814Z,-6.11
2018-02-25T05:09:42.809Z,-6.06
2018-02-25T05:10:52.923Z,-5.94
2018-02-25T05:12:02.802Z,-5.98
2018-02-25T05:13:12.955Z,-5.97
2018-02-25T05:14:22.841Z,-5.97
2018-02-25T05:15:32.721Z,-6.04
2018-02-25T05:16:42.874Z,-5.97
2018-02-25T05:17:54.402Z,-5.91
2018-02-25T05:19:05.189Z,-5.97
2018-02-25T05:20:15.094Z,-6.06
2018-02-25T05:21:25.238Z,-6.09
2018-02-25T05:22:35.130Z,-6.15
2018-02-25T05:23:44.414Z,-6.14
2018-02-25T05:24:54.627Z,-6.08
2018-02-25T05:26:04.621Z,-6.03
2018-02-25T05:27:14.507Z,-6.01
2018-02-25T05:28:24.824Z,-6.12
2018-02-25T05:29:35.007Z,-6.11
2018-02-25T05:30:45.263Z,-6.11
2018-02-25T05:31:55.389Z,-6.11
2018-02-25T05:33:05.580Z,-6.14
2018-02-25T05:34:15.688Z,-6.18
2018-02-25T05:35:25.848Z,-6.19
2018-02-25T05:36:35.607Z,-6.06
2018-02-25T05:37:45.927Z,-6.12
2018-02-25T05:38:55.885Z,-6.03
2018-02-25T05:40:06.034Z,-5.98
2018-02-25T05:41:16.393Z,-6
2018-02-25T05:42:26.506Z,-6.09
2018-02-25T05:43:36.481Z,-6.09
2018-02-25T05:44:47.165Z,-6.11
2018-02-25T05:46:00.335Z,-6.09
2018-02-25T05:47:10.488Z,-6.09
2018-02-25T05:48:21.017Z,-6.06
2018-02-25T05:49:32.104Z,-6.09
2018-02-25T05:50:42.288Z,-6.06
2018-02-25T05:51:52.462Z,-6.04
2018-02-25T05:53:02.564Z,-6.09
2018-02-25T05:54:12.353Z,-6.12
2018-02-25T05:55:22.903Z,-6.11
2018-02-25T05:56:33.021Z,-6.11
2018-02-25T05:57:42.762Z,-6.09
2018-02-25T05:58:52.976Z,-6.03
2018-02-25T06:00:03.134Z,-6.01
2018-02-25T06:01:13.336Z,-6
2018-02-25T06:02:23.702Z,-6.11
2018-02-25T06:03:33.854Z,-6.11
2018-02-25T06:04:43.970Z,-6.04
2018-02-25T06:05:54.091Z,-6.08
2018-02-25T06:07:04.213Z,-6.04
2018-02-25T06:08:14.352Z,-6.11
2018-02-25T06:09:24.220Z,-6.17
2018-02-25T06:10:34.179Z,-6.18
2018-02-25T06:11:44.062Z,-6.11
2018-02-25T06:12:54.299Z,-6.09
2018-02-25T06:14:04.441Z,-6.12
2018-02-25T06:15:14.572Z,-6.12
2018-02-25T06:16:24.434Z,-6.32
2018-02-25T06:17:34.667Z,-6.32
2018-02-25T06:18:44.549Z,-6.36
2018-02-25T06:19:54.425Z,-6.3
2018-02-25T06:21:04.554Z,-6.24
2018-02-25T06:22:14.420Z,-6.27
2018-02-25T06:23:24.684Z,-6.27
2018-02-25T06:24:34.535Z,-6.33
2018-02-25T06:25:44.607Z,-6.33
2018-02-25T06:26:54.982Z,-6.21
2018-02-25T06:28:05.135Z,-6.27
2018-02-25T06:29:16.268Z,-6.27
2018-02-25T06:30:26.381Z,-6.26
2018-02-25T06:31:36.952Z,-6.29
2018-02-25T06:32:47.135Z,-6.21
2018-02-25T06:33:57.961Z,-6.12
2018-02-25T06:35:08.781Z,-6.11
2018-02-25T06:36:18.922Z,-6.04
2018-02-25T06:37:28.865Z,-6.03
2018-02-25T06:38:39.656Z,-6.24
2018-02-25T06:39:50.312Z,-6.18
2018-02-25T06:41:00.530Z,-6.27
2018-02-25T06:42:10.491Z,-6.26
2018-02-25T06:43:20.856Z,-6.19
2018-02-25T06:44:30.738Z,-6.22
2018-02-25T06:45:41.803Z,-6.26
2018-02-25T06:46:52.210Z,-6.19
2018-02-25T06:48:02.321Z,-6.14
2018-02-25T06:49:12.725Z,-6.08
2018-02-25T06:50:22.884Z,-6.14
2018-02-25T06:51:32.745Z,-6.12
2018-02-25T06:52:42.719Z,-6.21
2018-02-25T06:53:53.169Z,-6.26
2018-02-25T06:55:04.342Z,-6.29
2018-02-25T06:56:14.244Z,-6.26
2018-02-25T06:57:24.590Z,-6.18
2018-02-25T06:58:34.762Z,-6.18
2018-02-25T06:59:45.021Z,-6.18
2018-02-25T07:00:55.176Z,-6.26
2018-02-25T07:02:05.198Z,-6.21
2018-02-25T07:03:15.337Z,-6.24
2018-02-25T07:04:25.459Z,-6.17
2018-02-25T07:05:35.656Z,-6.17
2018-02-25T07:06:45.554Z,-6.11
2018-02-25T07:07:55.705Z,-6.12
2018-02-25T07:09:05.939Z,-6.04
2018-02-25T07:10:17.843Z,-6.01
2018-02-25T07:11:27.393Z,-5.98
2018-02-25T07:12:37.547Z,-5.98
2018-02-25T07:13:47.729Z,-6.03
2018-02-25T07:14:57.959Z,-6
2018-02-25T07:16:08.133Z,-6.03
2018-02-25T07:17:18.522Z,-5.98
2018-02-25T07:18:28.669Z,-5.94
2018-02-25T07:19:38.896Z,-5.85
2018-02-25T07:20:49.088Z,-5.85
2018-02-25T07:21:58.946Z,-5.79
2018-02-25T07:23:09.129Z,-5.68
2018-02-25T07:24:20.198Z,-5.45
2018-02-25T07:25:30.134Z,-5.33
2018-02-25T07:26:39.930Z,-5.06
2018-02-25T07:27:49.580Z,-4.85
2018-02-25T07:28:59.784Z,-4.39
2018-02-25T07:30:09.909Z,-4.02
2018-02-25T07:31:19.584Z,-3.15
2018-02-25T07:32:29.770Z,-2.01
2018-02-25T07:33:39.593Z,-0.87
2018-02-25T07:34:49.471Z,-0.13
2018-02-25T07:35:59.624Z,0.71
2018-02-25T07:37:09.710Z,1.47
2018-02-25T07:38:19.462Z,2.1
2018-02-25T07:39:29.654Z,2.6
2018-02-25T07:40:39.844Z,3.06
2018-02-25T07:41:49.984Z,3.5
2018-02-25T07:43:00.196Z,3.85
2018-02-25T07:44:10.341Z,4.23
2018-02-25T07:45:20.478Z,4.67
2018-02-25T07:46:30.633Z,5.16
2018-02-25T07:47:40.770Z,5.5
2018-02-25T07:48:50.933Z,5.94
2018-02-25T07:50:00.960Z,5.96
2018-02-25T07:51:11.117Z,6.09
2018-02-25T07:52:21.254Z,6.2
2018-02-25T07:53:30.884Z,6.34
2018-02-25T07:54:40.808Z,6.57
2018-02-25T07:55:50.949Z,6.95
2018-02-25T07:57:00.923Z,7.18
2018-02-25T07:58:11.059Z,7.49
2018-02-25T07:59:21.222Z,7.69
2018-02-25T08:00:31.389Z,7.87
2018-02-25T08:01:41.288Z,7.88
2018-02-25T08:02:51.647Z,7.99
2018-02-25T08:04:02.691Z,8.2
2018-02-25T08:05:12.761Z,8.31
2018-02-25T08:06:23.038Z,8.27
2018-02-25T08:07:33.757Z,8.27
2018-02-25T08:08:44.703Z,8.35
2018-02-25T08:09:55.122Z,8.28
2018-02-25T08:11:05.369Z,8.3
2018-02-25T08:12:15.136Z,8.49
2018-02-25T08:13:24.660Z,8.5
2018-02-25T08:14:34.475Z,8.58
2018-02-25T08:15:44.025Z,8.49
2018-02-25T08:16:54.222Z,8.34
2018-02-25T08:18:04.377Z,8.37
2018-02-25T08:19:14.874Z,8.48
2018-02-25T08:20:25.018Z,8.52
2018-02-25T08:21:34.962Z,8.57
2018-02-25T08:22:44.489Z,8.61
2018-02-25T08:23:55.151Z,8.68
2018-02-25T08:25:05.580Z,9.07
2018-02-25T08:26:15.797Z,9.27
2018-02-25T08:27:25.962Z,9.4
2018-02-25T08:28:35.544Z,9.53
2018-02-25T08:29:45.724Z,9.6
2018-02-25T08:30:55.997Z,9.75
2018-02-25T08:32:05.794Z,9.81
2018-02-25T08:33:15.739Z,9.63
2018-02-25T08:34:28.368Z,9.3
2018-02-25T08:35:38.801Z,8.87
2018-02-25T08:36:49.027Z,8.55
2018-02-25T08:37:59.099Z,8.46
2018-02-25T08:39:09.246Z,8.5
2018-02-25T08:40:19.457Z,8.5
2018-02-25T08:41:29.435Z,8.46
2018-02-25T08:42:39.693Z,8.45
2018-02-25T08:43:49.941Z,8.61
2018-02-25T08:47:28.131Z,8.89
2018-02-25T08:48:38.515Z,9
2018-02-25T08:49:48.694Z,9.2
2018-02-25T08:50:58.848Z,9.45
2018-02-25T08:52:09.057Z,9.56
2018-02-25T08:53:19.206Z,9.56
2018-02-25T08:54:29.356Z,9.4
2018-02-25T08:55:39.494Z,9.29
2018-02-25T08:56:49.669Z,9.25
2018-02-25T08:57:59.876Z,9.17
2018-02-25T08:59:10.146Z,9.15
2018-02-25T09:00:20.345Z,8.95
2018-02-25T09:01:30.489Z,8.67
2018-02-25T09:02:40.631Z,8.52
2018-02-25T09:03:50.810Z,8.21
2018-02-25T09:05:00.458Z,7.82
2018-02-25T09:06:10.896Z,7.59
2018-02-25T09:07:21.149Z,7.52
2018-02-25T09:08:31.061Z,7.17
2018-02-25T09:09:40.986Z,6.96
2018-02-25T09:10:51.170Z,7.11
2018-02-25T09:12:01.347Z,7.34
2018-02-25T09:13:11.750Z,7.7
2018-02-25T09:14:22.101Z,7.95
2018-02-25T09:15:32.283Z,8.4
2018-02-25T09:16:42.451Z,8.58
2018-02-25T09:17:52.198Z,8.49
2018-02-25T09:19:02.572Z,8.49
2018-02-25T09:20:12.234Z,8.67
2018-02-25T09:21:22.461Z,8.63
2018-02-25T09:22:32.418Z,8.79
2018-02-25T09:23:42.206Z,9.15
2018-02-25T09:24:52.419Z,9.34
2018-02-25T09:26:02.582Z,9.37
2018-02-25T09:27:12.805Z,9.19
2018-02-25T09:28:23.011Z,9.22
2018-02-25T09:29:32.938Z,8.9
2018-02-25T09:30:43.342Z,8.75
2018-02-25T09:31:53.315Z,8.61
2018-02-25T09:33:03.228Z,8.49
2018-02-25T09:34:13.227Z,8.46
2018-02-25T09:35:23.376Z,8.03
2018-02-25T09:36:33.284Z,7.8
2018-02-25T09:37:43.231Z,7.54
2018-02-25T09:38:53.446Z,7.59
2018-02-25T09:40:03.614Z,7.77
2018-02-25T09:41:13.813Z,7.92
2018-02-25T09:42:23.724Z,8.15
2018-02-25T09:43:34.210Z,8.45
2018-02-25T09:44:44.433Z,8.6
2018-02-25T09:45:54.672Z,8.87
2018-02-25T09:47:04.964Z,9.05
2018-02-25T09:48:15.404Z,9.3
2018-02-25T09:49:25.740Z,9.52
2018-02-25T09:50:35.602Z,9.75
2018-02-25T09:51:45.784Z,9.89
2018-02-25T09:52:55.979Z,10.17
2018-02-25T09:54:06.553Z,9.98
2018-02-25T09:55:16.475Z,9.98
2018-02-25T09:56:26.679Z,9.95
2018-02-25T09:57:37.112Z,9.83
2018-02-25T09:58:47.252Z,9.7
2018-02-25T09:59:57.225Z,9.65
2018-02-25T10:01:07.055Z,9.55
2018-02-25T10:02:18.089Z,9.77
2018-02-25T10:03:28.890Z,9.8
2018-02-25T10:04:39.507Z,9.7
2018-02-25T10:05:50.028Z,9.55
2018-02-25T10:07:00.321Z,9.38
2018-02-25T10:08:10.525Z,9.27
2018-02-25T10:09:20.741Z,8.93
2018-02-25T10:10:30.934Z,8.86
2018-02-25T10:11:41.165Z,8.82
2018-02-25T10:12:51.357Z,8.98
2018-02-25T10:14:01.554Z,9.01
2018-02-25T10:15:11.475Z,9.09
2018-02-25T10:16:21.641Z,9.3
2018-02-25T10:17:34.455Z,9.26
2018-02-25T10:18:45.884Z,9.26
2018-02-25T10:19:56.115Z,9.26
2018-02-25T10:21:06.104Z,9.12
2018-02-25T10:22:15.969Z,9.19
2018-02-25T10:23:26.191Z,9.23
2018-02-25T10:24:36.172Z,9.34
2018-02-25T10:25:46.521Z,9.6
2018-02-25T10:26:56.726Z,9.88
2018-02-25T10:28:06.714Z,9.91
2018-02-25T10:29:16.931Z,9.95
2018-02-25T10:30:27.148Z,9.88
2018-02-25T10:31:36.824Z,10.08
2018-02-25T10:32:47.089Z,10.15
2018-02-25T10:33:57.267Z,10.24
2018-02-25T10:35:07.443Z,10.42
2018-02-25T10:36:17.659Z,10.37
2018-02-25T10:37:27.865Z,10.33
2018-02-25T10:38:38.021Z,10.24
2018-02-25T10:39:48.259Z,10.32
2018-02-25T10:40:58.179Z,10.15
2018-02-25T10:42:08.206Z,10.05
2018-02-25T10:43:18.147Z,9.84
2018-02-25T10:44:28.345Z,9.85
2018-02-25T10:45:38.530Z,10.13
2018-02-25T10:46:48.722Z,10
2018-02-25T10:47:58.894Z,10.02
2018-02-25T10:49:09.217Z,10
2018-02-25T10:50:19.181Z,10.17
2018-02-25T10:51:29.332Z,10.34
2018-02-25T10:52:39.598Z,10.3
2018-02-25T10:53:49.822Z,10.36
2018-02-25T10:55:00.107Z,10.17
2018-02-25T10:56:09.996Z,10.13
2018-02-25T10:57:19.937Z,9.78
2018-02-25T10:58:30.067Z,9.34
2018-02-25T10:59:40.293Z,9.02
2018-02-25T11:00:50.512Z,8.66
2018-02-25T11:02:00.514Z,8.57
2018-02-25T11:03:10.467Z,8.75
2018-02-25T11:04:20.689Z,8.86
2018-02-25T11:05:30.942Z,9.2
2018-02-25T11:06:41.067Z,9.38
2018-02-25T11:07:51.224Z,9.53
2018-02-25T11:09:01.152Z,9.42
2018-02-25T11:10:11.619Z,9.04
2018-02-25T11:11:22.108Z,8.58
2018-02-25T11:12:32.343Z,8.07
2018-02-25T11:13:42.582Z,7.58
2018-02-25T11:14:52.778Z,7.02
2018-02-25T11:16:02.729Z,6.53
2018-02-25T11:17:12.986Z,6.49
2018-02-25T11:18:23.279Z,6.57
2018-02-25T11:19:33.453Z,6.85
2018-02-25T11:20:43.694Z,6.95
2018-02-25T11:21:53.972Z,7.15
2018-02-25T11:23:05.187Z,7.18
2018-02-25T11:24:15.398Z,7.22
2018-02-25T11:25:25.683Z,7.29
2018-02-25T11:26:35.858Z,7.29
2018-02-25T11:27:45.536Z,7.18
2018-02-25T11:28:55.744Z,7.08
2018-02-25T11:30:05.950Z,6.79
2018-02-25T11:31:16.246Z,6.45
2018-02-25T11:32:27.630Z,6.44
2018-02-25T11:33:37.569Z,6.48
2018-02-25T11:34:47.747Z,6.52
2018-02-25T11:35:57.707Z,6.82
2018-02-25T11:37:07.916Z,6.97
2018-02-25T11:38:18.119Z,7.13
2018-02-25T11:39:28.154Z,7.29
2018-02-25T11:40:38.339Z,7.37
2018-02-25T11:41:48.599Z,7.51
2018-02-25T11:42:58.856Z,7.64
2018-02-25T11:44:09.087Z,7.9
2018-02-25T11:45:19.297Z,8.34
2018-02-25T11:46:28.895Z,8.63
2018-02-25T11:47:39.125Z,8.74
2018-02-25T11:48:49.698Z,8.89
2018-02-25T11:49:59.755Z,8.68
2018-02-25T11:51:10.151Z,8.34
2018-02-25T11:52:20.419Z,7.74
2018-02-25T11:53:30.949Z,7.59
2018-02-25T11:54:41.339Z,7.49
2018-02-25T11:55:51.190Z,7.39
2018-02-25T11:57:01.661Z,7.21
2018-02-25T11:58:11.892Z,7.22
2018-02-25T11:59:22.330Z,7.1
2018-02-25T12:00:32.332Z,7.03
2018-02-25T12:01:41.933Z,6.84
2018-02-25T12:02:51.899Z,6.96
2018-02-25T12:04:02.253Z,7
2018-02-25T12:05:12.526Z,7.15
2018-02-25T12:06:22.753Z,7.29
2018-02-25T12:07:32.665Z,7.48
2018-02-25T12:08:42.861Z,7.69
2018-02-25T12:09:53.106Z,7.92
2018-02-25T12:11:03.540Z,8.07
2018-02-25T12:12:13.406Z,7.85
2018-02-25T12:13:23.724Z,7.72
2018-02-25T12:14:33.911Z,7.64
2018-02-25T12:15:43.912Z,7.52
2018-02-25T12:16:54.430Z,7.41
2018-02-25T12:18:04.649Z,7.18
2018-02-25T12:19:14.842Z,7.11
2018-02-25T12:20:25.085Z,6.81
2018-02-25T12:21:35.299Z,6.41
2018-02-25T12:22:45.246Z,6.05
2018-02-25T12:23:55.481Z,5.88
2018-02-25T12:25:05.620Z,5.58
2018-02-25T12:26:15.796Z,5.46
2018-02-25T12:27:25.647Z,5.46
2018-02-25T12:28:35.211Z,5.36
2018-02-25T12:29:46.414Z,5.18
2018-02-25T12:30:56.350Z,5.14
2018-02-25T12:32:06.667Z,5.07
2018-02-25T12:33:16.616Z,4.98
2018-02-25T12:34:26.630Z,4.77
2018-02-25T12:35:36.914Z,4.63
2018-02-25T12:36:46.893Z,4.62
2018-02-25T12:37:57.074Z,4.43
2018-02-25T12:39:07.033Z,4.33
2018-02-25T12:40:16.955Z,4.3
2018-02-25T12:41:27.262Z,4.37
2018-02-25T12:42:37.418Z,4.43
2018-02-25T12:43:47.370Z,4.38
2018-02-25T12:44:57.293Z,4.36
2018-02-25T12:46:07.468Z,4.3
2018-02-25T12:47:17.711Z,4.05
2018-02-25T12:48:27.883Z,4.04
2018-02-25T12:49:39.720Z,4.01
2018-02-25T12:50:49.909Z,3.9
2018-02-25T12:51:59.697Z,3.93
2018-02-25T12:53:09.872Z,3.67
2018-02-25T12:54:20.103Z,3.54
2018-02-25T12:55:30.523Z,3.29
2018-02-25T12:56:40.477Z,3.22
2018-02-25T12:57:50.510Z,3
2018-02-25T12:59:00.828Z,2.91
2018-02-25T13:00:11.014Z,2.79
2018-02-25T13:01:21.204Z,2.79
2018-02-25T13:02:31.358Z,2.89
2018-02-25T13:03:41.547Z,2.87
2018-02-25T13:04:51.937Z,2.89
2018-02-25T13:06:02.192Z,2.82
2018-02-25T13:07:12.374Z,2.82
2018-02-25T13:08:22.576Z,2.81
2018-02-25T13:09:32.781Z,2.77
2018-02-25T13:10:43.017Z,2.7
2018-02-25T13:11:53.188Z,2.73
2018-02-25T13:13:03.343Z,2.81
2018-02-25T13:14:13.337Z,2.84
2018-02-25T13:15:23.821Z,2.81
2018-02-25T13:16:34.062Z,2.85
2018-02-25T13:17:44.311Z,2.94
2018-02-25T13:18:54.583Z,2.96
2018-02-25T13:20:04.834Z,2.92
2018-02-25T13:21:15.059Z,2.94
2018-02-25T13:22:25.252Z,2.87
2018-02-25T13:23:35.425Z,2.85
2018-02-25T13:24:45.708Z,2.7
2018-02-25T13:25:55.666Z,2.71
2018-02-25T13:27:05.861Z,2.64
2018-02-25T13:28:16.401Z,2.66
2018-02-25T13:29:26.600Z,2.51
2018-02-25T13:30:36.437Z,2.44
2018-02-25T13:31:46.574Z,2.42
2018-02-25T13:32:56.538Z,2.39
2018-02-25T13:34:06.376Z,2.31
2018-02-25T13:35:16.039Z,2.27
2018-02-25T13:36:25.757Z,2.09
2018-02-25T13:37:35.491Z,1.95
2018-02-25T13:38:45.729Z,1.8
2018-02-25T13:39:55.909Z,1.72
2018-02-25T13:41:06.100Z,1.58
2018-02-25T13:42:16.328Z,1.53
2018-02-25T13:43:26.245Z,1.55
2018-02-25T13:44:36.169Z,1.32
2018-02-25T13:45:46.533Z,1.29
2018-02-25T13:46:56.707Z,1.35
2018-02-25T13:48:06.317Z,1.22
2018-02-25T13:49:16.511Z,1.25
2018-02-25T13:50:26.908Z,1.2
2018-02-25T13:51:37.541Z,1.22
2018-02-25T13:52:47.654Z,1.15
2018-02-25T13:53:57.884Z,1.08
2018-02-25T13:55:07.844Z,0.99
2018-02-25T13:56:17.744Z,0.99
2018-02-25T13:57:27.958Z,0.96
2018-02-25T13:58:38.098Z,0.85
2018-02-25T13:59:48.423Z,0.82
2018-02-25T14:00:58.312Z,0.86
2018-02-25T14:02:08.492Z,0.92
2018-02-25T14:03:18.703Z,0.85
2018-02-25T14:04:28.902Z,0.93
2018-02-25T14:05:38.826Z,0.9
2018-02-25T14:06:49.078Z,0.78
2018-02-25T14:07:59.337Z,0.81
2018-02-25T14:09:09.290Z,0.93
2018-02-25T14:10:19.132Z,0.85
2018-02-25T14:11:29.310Z,0.9
2018-02-25T14:12:39.599Z,0.88
2018-02-25T14:13:49.441Z,0.79
2018-02-25T14:14:59.627Z,0.81
2018-02-25T14:16:09.829Z,0.72
2018-02-25T14:17:20.057Z,0.71
2018-02-25T14:18:29.972Z,0.64
2018-02-25T14:19:40.339Z,0.68
2018-02-25T14:20:50.251Z,0.58
2018-02-25T14:22:00.466Z,0.64
2018-02-25T14:23:10.143Z,0.57
2018-02-25T14:24:20.363Z,0.68
2018-02-25T14:25:30.547Z,0.61
2018-02-25T14:26:40.405Z,0.6
2018-02-25T14:27:50.613Z,0.58
2018-02-25T14:29:00.805Z,0.6
2018-02-25T14:30:11.061Z,0.6
2018-02-25T14:31:21.229Z,0.58
2018-02-25T14:32:31.239Z,0.53
2018-02-25T14:33:41.496Z,0.48
2018-02-25T14:34:51.725Z,0.43
2018-02-25T14:36:02.004Z,0.4
2018-02-25T14:37:12.263Z,0.45
2018-02-25T14:38:22.537Z,0.43
2018-02-25T14:39:32.740Z,0.28
2018-02-25T14:40:42.971Z,0.3
2018-02-25T14:41:52.942Z,0.38
2018-02-25T14:43:02.845Z,0.35
2018-02-25T14:44:13.059Z,0.27
2018-02-25T14:45:23.008Z,0.31
2018-02-25T14:46:33.247Z,0.31
2018-02-25T14:47:43.087Z,0.38
2018-02-25T14:48:53.498Z,0.4
2018-02-25T14:50:03.478Z,0.5
2018-02-25T14:51:13.713Z,0.42
2018-02-25T14:52:23.964Z,0.49
2018-02-25T14:53:34.282Z,0.46
2018-02-25T14:54:44.600Z,0.43
2018-02-25T14:55:54.464Z,0.48
2018-02-25T14:57:04.368Z,0.48
2018-02-25T14:58:14.746Z,0.56
2018-02-25T14:59:25.112Z,0.58
2018-02-25T15:00:35.127Z,0.56
2018-02-25T15:01:45.286Z,0.57
2018-02-25T15:02:55.448Z,0.54
2018-02-25T15:04:05.662Z,0.56
2018-02-25T15:05:15.873Z,0.49
2018-02-25T15:06:26.218Z,0.43
2018-02-25T15:07:36.596Z,0.39
2018-02-25T15:08:46.479Z,0.43
2018-02-25T15:09:56.367Z,0.42
2018-02-25T15:11:06.633Z,0.38
2018-02-25T15:12:16.644Z,0.3
2018-02-25T15:13:26.756Z,0.25
2018-02-25T15:14:36.826Z,0.22
2018-02-25T15:15:47.093Z,0.16
2018-02-25T15:16:57.219Z,0.05
2018-02-25T15:18:07.639Z,0.08
2018-02-25T15:19:17.751Z,0.06
2018-02-25T15:20:29.078Z,0.05
2018-02-25T15:21:40.266Z,0.06
2018-02-25T15:22:50.376Z,-0.01
2018-02-25T15:24:00.728Z,-0.06